Wadley, Alabama
Current Conditions -  °F | °C
As of 2:15 AM on Monday 24 Nov 2014 (Local Time) from KALX Reporting Station
Overcast Overcast  
Wind Chill: 69°   Ceiling: 1400
Heat Index: 69°   Visibility: 10mi
Dew Point: 63°   Wind: 10mph
Humidity: 80%   Direction: 210°SSW
Pressure: 29.74"   Gusts: 20mph
Location:  33.12°N, 85.57°W
Report Text: KALX 240815Z AUTO 21009G17KT 10SM OVC014 21/17 A2974 RMK AO2 T02070171
Loading
Personal Weather Stations






























Interactive Weather Map New forecast layout! Learn more

10-Day Weather Forecast

Advertisements
Track Severe Weather on mobile